sensor_id;sensor_type;location;lat;lon;timestamp;pressure;altitude;pressure_sealevel;temperature;humidity
12987;BME280;58897;51.960;5.582;2023-10-31T00:00:26;99387.22;;;10.52;100.00
12987;BME280;58897;51.960;5.582;2023-10-31T00:02:53;99388.03;;;10.52;100.00
12987;BME280;58897;51.960;5.582;2023-10-31T00:05:19;99387.59;;;10.49;100.00
12987;BME280;58897;51.960;5.582;2023-10-31T00:07:47;99394.69;;;10.50;100.00
12987;BME280;58897;51.960;5.582;2023-10-31T00:10:14;99392.91;;;10.36;100.00
12987;BME280;58897;51.960;5.582;2023-10-31T00:12:40;99397.53;;;10.42;100.00
12987;BME280;58897;51.960;5.582;2023-10-31T00:15:07;99401.44;;;10.39;100.00
12987;BME280;58897;51.960;5.582;2023-10-31T00:17:34;99399.34;;;10.35;100.00
12987;BME280;58897;51.960;5.582;2023-10-31T00:20:00;99406.00;;;10.39;100.00
12987;BME280;58897;51.960;5.582;2023-10-31T00:22:27;99405.53;;;10.29;100.00
12987;BME280;58897;51.960;5.582;2023-10-31T00:24:54;99406.94;;;10.25;100.00
12987;BME280;58897;51.960;5.582;2023-10-31T00:27:20;99405.56;;;10.35;100.00
12987;BME280;58897;51.960;5.582;2023-10-31T00:29:47;99410.69;;;10.24;100.00
12987;BME280;58897;51.960;5.582;2023-10-31T00:32:14;99404.66;;;10.22;100.00
12987;BME280;58897;51.960;5.582;2023-10-31T00:34:40;99410.84;;;10.22;100.00
12987;BME280;58897;51.960;5.582;2023-10-31T00:37:07;99411.69;;;10.23;100.00
12987;BME280;58897;51.960;5.582;2023-10-31T00:39:34;99419.75;;;10.16;100.00
12987;BME280;58897;51.960;5.582;2023-10-31T00:42:00;99414.00;;;10.26;100.00
12987;BME280;58897;51.960;5.582;2023-10-31T00:44:27;99418.94;;;10.22;100.00
12987;BME280;58897;51.960;5.582;2023-10-31T00:46:53;99416.47;;;10.21;100.00
12987;BME280;58897;51.960;5.582;2023-10-31T00:49:20;99432.06;;;10.25;100.00
12987;BME280;58897;51.960;5.582;2023-10-31T00:51:46;99444.66;;;10.18;100.00
12987;BME280;58897;51.960;5.582;2023-10-31T00:54:13;99450.06;;;10.18;100.00
12987;BME280;58897;51.960;5.582;2023-10-31T00:56:40;99465.25;;;10.19;100.00
12987;BME280;58897;51.960;5.582;2023-10-31T00:59:07;99454.56;;;10.32;100.00
12987;BME280;58897;51.960;5.582;2023-10-31T01:01:33;99465.50;;;10.24;100.00
12987;BME280;58897;51.960;5.582;2023-10-31T01:04:00;99465.50;;;10.24;100.00
12987;BME280;58897;51.960;5.582;2023-10-31T01:06:27;99470.22;;;10.22;100.00
12987;BME280;58897;51.960;5.582;2023-10-31T01:08:53;99466.63;;;10.15;100.00
12987;BME280;58897;51.960;5.582;2023-10-31T01:11:20;99472.66;;;10.17;100.00
12987;BME280;58897;51.960;5.582;2023-10-31T01:13:46;99467.09;;;10.19;100.00
12987;BME280;58897;51.960;5.582;2023-10-31T01:16:13;99485.19;;;10.25;100.00
12987;BME280;58897;51.960;5.582;2023-10-31T01:18:40;99483.09;;;10.20;100.00
12987;BME280;58897;51.960;5.582;2023-10-31T01:21:06;99485.59;;;10.22;100.00
12987;BME280;58897;51.960;5.582;2023-10-31T01:23:35;99483.97;;;10.27;100.00
12987;BME280;58897;51.960;5.582;2023-10-31T01:26:02;99490.16;;;10.21;100.00
12987;BME280;58897;51.960;5.582;2023-10-31T01:28:28;99482.91;;;10.22;100.00
12987;BME280;58897;51.960;5.582;2023-10-31T01:30:55;99489.97;;;10.23;100.00
12987;BME280;58897;51.960;5.582;2023-10-31T01:33:21;99487.88;;;10.04;100.00
12987;BME280;58897;51.960;5.582;2023-10-31T01:35:49;99485.25;;;10.10;100.00
12987;BME280;58897;51.960;5.582;2023-10-31T01:38:16;99501.50;;;10.17;100.00
12987;BME280;58897;51.960;5.582;2023-10-31T01:40:43;99501.50;;;10.17;100.00
12987;BME280;58897;51.960;5.582;2023-10-31T01:43:09;99501.13;;;10.20;100.00
12987;BME280;58897;51.960;5.582;2023-10-31T01:45:36;99497.41;;;10.21;100.00
12987;BME280;58897;51.960;5.582;2023-10-31T01:48:03;99499.03;;;10.15;100.00
12987;BME280;58897;51.960;5.582;2023-10-31T01:50:29;99501.59;;;10.23;100.00
12987;BME280;58897;51.960;5.582;2023-10-31T01:52:56;99498.44;;;10.20;100.00
12987;BME280;58897;51.960;5.582;2023-10-31T01:55:23;99493.28;;;10.25;100.00
12987;BME280;58897;51.960;5.582;2023-10-31T01:57:54;99489.56;;;10.26;100.00
12987;BME280;58897;51.960;5.582;2023-10-31T02:00:21;99489.53;;;10.19;100.00
12987;BME280;58897;51.960;5.582;2023-10-31T02:02:48;99493.69;;;10.22;100.00
12987;BME280;58897;51.960;5.582;2023-10-31T02:05:18;99494.50;;;10.22;100.00
12987;BME280;58897;51.960;5.582;2023-10-31T02:07:45;99502.56;;;10.16;100.00
12987;BME280;58897;51.960;5.582;2023-10-31T02:10:12;99504.41;;;10.15;100.00
12987;BME280;58897;51.960;5.582;2023-10-31T02:12:38;99511.38;;;10.24;100.00
12987;BME280;58897;51.960;5.582;2023-10-31T02:15:05;99505.63;;;10.13;100.00
12987;BME280;58897;51.960;5.582;2023-10-31T02:17:32;99507.00;;;10.23;100.00
12987;BME280;58897;51.960;5.582;2023-10-31T02:19:59;99508.22;;;10.21;100.00
12987;BME280;58897;51.960;5.582;2023-10-31T02:22:26;99509.91;;;10.22;100.00
12987;BME280;58897;51.960;5.582;2023-10-31T02:24:52;99507.38;;;10.20;100.00
12987;BME280;58897;51.960;5.582;2023-10-31T02:27:19;99507.75;;;10.17;100.00
12987;BME280;58897;51.960;5.582;2023-10-31T02:29:45;99502.34;;;10.17;100.00
12987;BME280;58897;51.960;5.582;2023-10-31T02:32:12;99496.13;;;10.17;100.00
12987;BME280;58897;51.960;5.582;2023-10-31T02:34:39;99501.13;;;10.20;100.00
12987;BME280;58897;51.960;5.582;2023-10-31T02:37:06;99504.50;;;10.22;100.00
12987;BME280;58897;51.960;5.582;2023-10-31T02:39:33;99502.59;;;10.22;100.00
12987;BME280;58897;51.960;5.582;2023-10-31T02:41:59;99509.22;;;10.20;100.00
12987;BME280;58897;51.960;5.582;2023-10-31T02:44:26;99509.06;;;10.21;100.00
12987;BME280;58897;51.960;5.582;2023-10-31T02:46:52;99511.88;;;10.13;100.00
12987;BME280;58897;51.960;5.582;2023-10-31T02:49:19;99516.50;;;10.19;100.00
12987;BME280;58897;51.960;5.582;2023-10-31T02:51:46;99522.72;;;10.20;100.00
12987;BME280;58897;51.960;5.582;2023-10-31T02:54:12;99522.34;;;10.23;100.00
12987;BME280;58897;51.960;5.582;2023-10-31T02:56:39;99522.81;;;10.26;100.00
12987;BME280;58897;51.960;5.582;2023-10-31T02:59:06;99529.84;;;10.27;100.00
12987;BME280;58897;51.960;5.582;2023-10-31T03:01:32;99529.59;;;10.22;100.00
12987;BME280;58897;51.960;5.582;2023-10-31T03:03:59;99537.31;;;10.25;100.00
12987;BME280;58897;51.960;5.582;2023-10-31T03:06:25;99530.44;;;10.23;100.00
12987;BME280;58897;51.960;5.582;2023-10-31T03:08:52;99534.81;;;10.24;100.00
12987;BME280;58897;51.960;5.582;2023-10-31T03:11:25;99535.84;;;10.23;100.00
12987;BME280;58897;51.960;5.582;2023-10-31T03:13:53;99535.47;;;10.26;100.00
12987;BME280;58897;51.960;5.582;2023-10-31T03:16:20;99546.38;;;10.18;100.00
12987;BME280;58897;51.960;5.582;2023-10-31T03:18:48;99544.19;;;10.28;100.00
12987;BME280;58897;51.960;5.582;2023-10-31T03:21:14;99548.50;;;10.22;100.00
12987;BME280;58897;51.960;5.582;2023-10-31T03:23:43;99559.22;;;10.16;100.00
12987;BME280;58897;51.960;5.582;2023-10-31T03:26:09;99559.28;;;10.22;100.00
12987;BME280;58897;51.960;5.582;2023-10-31T03:28:36;99563.47;;;10.25;100.00
12987;BME280;58897;51.960;5.582;2023-10-31T03:31:03;99562.41;;;10.19;100.00
12987;BME280;58897;51.960;5.582;2023-10-31T03:33:30;99568.69;;;10.26;100.00
12987;BME280;58897;51.960;5.582;2023-10-31T03:35:56;99571.97;;;10.22;100.00
12987;BME280;58897;51.960;5.582;2023-10-31T03:38:23;99575.09;;;10.25;100.00
12987;BME280;58897;51.960;5.582;2023-10-31T03:40:50;99583.84;;;10.27;100.00
12987;BME280;58897;51.960;5.582;2023-10-31T03:43:16;99586.75;;;10.26;100.00
12987;BME280;58897;51.960;5.582;2023-10-31T03:45:43;99587.56;;;10.26;100.00
12987;BME280;58897;51.960;5.582;2023-10-31T03:48:10;99596.25;;;10.22;100.00
12987;BME280;58897;51.960;5.582;2023-10-31T03:50:36;99598.13;;;10.21;100.00
12987;BME280;58897;51.960;5.582;2023-10-31T03:53:03;99605.09;;;10.16;100.00
12987;BME280;58897;51.960;5.582;2023-10-31T03:55:30;99605.44;;;10.27;100.00
12987;BME280;58897;51.960;5.582;2023-10-31T03:57:56;99612.44;;;10.22;100.00
12987;BME280;58897;51.960;5.582;2023-10-31T04:00:23;99607.69;;;10.24;100.00
12987;BME280;58897;51.960;5.582;2023-10-31T04:02:50;99623.03;;;10.23;100.00
12987;BME280;58897;51.960;5.582;2023-10-31T04:05:16;99628.44;;;10.23;100.00
12987;BME280;58897;51.960;5.582;2023-10-31T04:07:43;99628.69;;;10.28;100.00
12987;BME280;58897;51.960;5.582;2023-10-31T04:10:09;99631.59;;;10.27;100.00
12987;BME280;58897;51.960;5.582;2023-10-31T04:12:36;99629.91;;;10.26;100.00
12987;BME280;58897;51.960;5.582;2023-10-31T04:15:03;99628.50;;;10.30;100.00
12987;BME280;58897;51.960;5.582;2023-10-31T04:17:30;99638.03;;;10.26;100.00
12987;BME280;58897;51.960;5.582;2023-10-31T04:19:57;99634.22;;;10.20;100.00
12987;BME280;58897;51.960;5.582;2023-10-31T04:22:24;99643.41;;;10.26;100.00
12987;BME280;58897;51.960;5.582;2023-10-31T04:24:50;99643.69;;;10.31;100.00
12987;BME280;58897;51.960;5.582;2023-10-31T04:27:17;99646.22;;;10.32;100.00
12987;BME280;58897;51.960;5.582;2023-10-31T04:29:45;99654.31;;;10.32;100.00
12987;BME280;58897;51.960;5.582;2023-10-31T04:32:11;99647.69;;;10.35;100.00
12987;BME280;58897;51.960;5.582;2023-10-31T04:34:38;99645.28;;;10.25;100.00
12987;BME280;58897;51.960;5.582;2023-10-31T04:37:05;99653.38;;;10.25;100.00
12987;BME280;58897;51.960;5.582;2023-10-31T04:39:32;99652.63;;;10.31;100.00
12987;BME280;58897;51.960;5.582;2023-10-31T04:41:58;99655.22;;;10.25;100.00
12987;BME280;58897;51.960;5.582;2023-10-31T04:44:25;99658.34;;;10.22;100.00
12987;BME280;58897;51.960;5.582;2023-10-31T04:46:52;99656.72;;;10.27;100.00
12987;BME280;58897;51.960;5.582;2023-10-31T04:49:19;99657.75;;;10.26;100.00
12987;BME280;58897;51.960;5.582;2023-10-31T04:51:48;99659.59;;;10.26;100.00
12987;BME280;58897;51.960;5.582;2023-10-31T04:54:14;99664.16;;;10.25;100.00
12987;BME280;58897;51.960;5.582;2023-10-31T04:56:41;99665.28;;;10.31;100.00
12987;BME280;58897;51.960;5.582;2023-10-31T04:59:07;99662.78;;;10.29;100.00
12987;BME280;58897;51.960;5.582;2023-10-31T05:01:34;99663.91;;;10.20;100.00
12987;BME280;58897;51.960;5.582;2023-10-31T05:04:00;99671.63;;;10.23;100.00
12987;BME280;58897;51.960;5.582;2023-10-31T05:06:38;99672.00;;;10.20;100.00
12987;BME280;58897;51.960;5.582;2023-10-31T05:09:04;99670.88;;;10.15;100.00
12987;BME280;58897;51.960;5.582;2023-10-31T05:11:31;99678.88;;;10.08;100.00
12987;BME280;58897;51.960;5.582;2023-10-31T05:13:58;99678.69;;;10.10;100.00
12987;BME280;58897;51.960;5.582;2023-10-31T05:16:25;99681.47;;;10.02;100.00
12987;BME280;58897;51.960;5.582;2023-10-31T05:18:52;99687.28;;;10.13;100.00
12987;BME280;58897;51.960;5.582;2023-10-31T05:21:20;99687.06;;;10.00;100.00
12987;BME280;58897;51.960;5.582;2023-10-31T05:23:50;99694.59;;;10.05;100.00
12987;BME280;58897;51.960;5.582;2023-10-31T05:26:17;99700.00;;;10.05;100.00
12987;BME280;58897;51.960;5.582;2023-10-31T05:28:43;99696.81;;;10.01;100.00
12987;BME280;58897;51.960;5.582;2023-10-31T05:31:10;99699.63;;;10.08;100.00
12987;BME280;58897;51.960;5.582;2023-10-31T05:33:36;99698.13;;;10.05;100.00
12987;BME280;58897;51.960;5.582;2023-10-31T05:36:03;99700.72;;;9.99;100.00
12987;BME280;58897;51.960;5.582;2023-10-31T05:38:30;99702.69;;;10.05;100.00
12987;BME280;58897;51.960;5.582;2023-10-31T05:40:57;99702.31;;;10.08;100.00
12987;BME280;58897;51.960;5.582;2023-10-31T05:43:23;99713.69;;;10.03;100.00
12987;BME280;58897;51.960;5.582;2023-10-31T05:45:50;99711.16;;;10.02;100.00
12987;BME280;58897;51.960;5.582;2023-10-31T05:48:17;99708.53;;;9.93;100.00
12987;BME280;58897;51.960;5.582;2023-10-31T05:50:43;99714.50;;;9.89;100.00
12987;BME280;58897;51.960;5.582;2023-10-31T05:53:10;99709.59;;;9.92;100.00
12987;BME280;58897;51.960;5.582;2023-10-31T05:55:41;99716.72;;;9.85;100.00
12987;BME280;58897;51.960;5.582;2023-10-31T05:58:07;99718.41;;;9.86;100.00
12987;BME280;58897;51.960;5.582;2023-10-31T06:00:34;99719.16;;;9.95;100.00
12987;BME280;58897;51.960;5.582;2023-10-31T06:03:01;99720.75;;;9.89;100.00
12987;BME280;58897;51.960;5.582;2023-10-31T06:05:28;99725.31;;;9.74;100.00
12987;BME280;58897;51.960;5.582;2023-10-31T06:07:54;99733.13;;;9.84;100.00
12987;BME280;58897;51.960;5.582;2023-10-31T06:10:21;99732.38;;;9.90;100.00
12987;BME280;58897;51.960;5.582;2023-10-31T06:12:48;99736.19;;;9.81;100.00
12987;BME280;58897;51.960;5.582;2023-10-31T06:15:14;99738.72;;;9.82;100.00
12987;BME280;58897;51.960;5.582;2023-10-31T06:17:41;99747.25;;;9.86;100.00
12987;BME280;58897;51.960;5.582;2023-10-31T06:20:09;99752.63;;;9.86;100.00
12987;BME280;58897;51.960;5.582;2023-10-31T06:22:36;99751.72;;;9.79;100.00
12987;BME280;58897;51.960;5.582;2023-10-31T06:25:02;99759.25;;;9.83;100.00
12987;BME280;58897;51.960;5.582;2023-10-31T06:27:29;99758.22;;;9.84;100.00
12987;BME280;58897;51.960;5.582;2023-10-31T06:29:56;99765.59;;;9.90;100.00
12987;BME280;58897;51.960;5.582;2023-10-31T06:32:43;99765.28;;;9.85;100.00
12987;BME280;58897;51.960;5.582;2023-10-31T06:35:09;99768.28;;;9.90;100.00
12987;BME280;58897;51.960;5.582;2023-10-31T06:37:36;99765.88;;;9.96;100.00
12987;BME280;58897;51.960;5.582;2023-10-31T06:40:04;99767.25;;;9.91;100.00
12987;BME280;58897;51.960;5.582;2023-10-31T06:42:31;99774.06;;;10.02;100.00
12987;BME280;58897;51.960;5.582;2023-10-31T06:44:57;99771.06;;;9.97;100.00
12987;BME280;58897;51.960;5.582;2023-10-31T06:47:24;99777.75;;;10.01;100.00
12987;BME280;58897;51.960;5.582;2023-10-31T06:49:50;99780.56;;;9.93;100.00
12987;BME280;58897;51.960;5.582;2023-10-31T06:52:17;99777.88;;;9.93;100.00
12987;BME280;58897;51.960;5.582;2023-10-31T06:54:44;99778.31;;;9.97;100.00
12987;BME280;58897;51.960;5.582;2023-10-31T06:57:10;99786.06;;;10.00;100.00
12987;BME280;58897;51.960;5.582;2023-10-31T06:59:37;99777.13;;;9.99;100.00
12987;BME280;58897;51.960;5.582;2023-10-31T07:02:04;99785.84;;;10.01;100.00
12987;BME280;58897;51.960;5.582;2023-10-31T07:04:31;99785.22;;;9.99;100.00
12987;BME280;58897;51.960;5.582;2023-10-31T07:06:58;99796.00;;;9.99;100.00
12987;BME280;58897;51.960;5.582;2023-10-31T07:09:25;99795.34;;;9.97;100.00
12987;BME280;58897;51.960;5.582;2023-10-31T07:11:52;99801.88;;;10.03;100.00
12987;BME280;58897;51.960;5.582;2023-10-31T07:14:19;99808.47;;;10.00;100.00
12987;BME280;58897;51.960;5.582;2023-10-31T07:16:47;99815.94;;;9.98;100.00
12987;BME280;58897;51.960;5.582;2023-10-31T07:19:14;99811.81;;;10.02;100.00
12987;BME280;58897;51.960;5.582;2023-10-31T07:21:41;99804.22;;;10.06;100.00
12987;BME280;58897;51.960;5.582;2023-10-31T07:24:08;99815.28;;;10.11;100.00
12987;BME280;58897;51.960;5.582;2023-10-31T07:26:35;99813.31;;;10.05;100.00
12987;BME280;58897;51.960;5.582;2023-10-31T07:29:02;99812.59;;;10.11;100.00
12987;BME280;58897;51.960;5.582;2023-10-31T07:31:29;99819.50;;;10.13;100.00
12987;BME280;58897;51.960;5.582;2023-10-31T07:33:56;99811.03;;;10.16;100.00
12987;BME280;58897;51.960;5.582;2023-10-31T07:36:23;99830.09;;;10.15;100.00
12987;BME280;58897;51.960;5.582;2023-10-31T07:38:49;99823.50;;;10.17;100.00
12987;BME280;58897;51.960;5.582;2023-10-31T07:41:16;99825.28;;;10.25;100.00
12987;BME280;58897;51.960;5.582;2023-10-31T07:43:43;99820.53;;;10.27;100.00
12987;BME280;58897;51.960;5.582;2023-10-31T07:46:10;99827.44;;;10.29;100.00
12987;BME280;58897;51.960;5.582;2023-10-31T07:48:37;99821.75;;;10.39;100.00
12987;BME280;58897;51.960;5.582;2023-10-31T07:51:04;99819.31;;;10.44;100.00
12987;BME280;58897;51.960;5.582;2023-10-31T07:53:31;99823.78;;;10.51;100.00
12987;BME280;58897;51.960;5.582;2023-10-31T07:55:58;99822.41;;;10.56;100.00
12987;BME280;58897;51.960;5.582;2023-10-31T07:58:24;99828.16;;;10.52;100.00
12987;BME280;58897;51.960;5.582;2023-10-31T08:00:51;99829.34;;;10.65;100.00
12987;BME280;58897;51.960;5.582;2023-10-31T08:03:18;99827.56;;;10.72;100.00
12987;BME280;58897;51.960;5.582;2023-10-31T08:05:45;99832.22;;;10.78;100.00
12987;BME280;58897;51.960;5.582;2023-10-31T08:08:11;99837.25;;;10.81;100.00
12987;BME280;58897;51.960;5.582;2023-10-31T08:10:38;99834.28;;;10.76;100.00
12987;BME280;58897;51.960;5.582;2023-10-31T08:13:05;99833.44;;;10.75;100.00
12987;BME280;58897;51.960;5.582;2023-10-31T08:15:31;99831.66;;;10.82;100.00
12987;BME280;58897;51.960;5.582;2023-10-31T08:17:58;99839.22;;;10.87;100.00
12987;BME280;58897;51.960;5.582;2023-10-31T08:20:24;99841.81;;;11.16;100.00
12987;BME280;58897;51.960;5.582;2023-10-31T08:22:51;99836.66;;;11.36;100.00
12987;BME280;58897;51.960;5.582;2023-10-31T08:25:18;99836.97;;;11.47;100.00
12987;BME280;58897;51.960;5.582;2023-10-31T08:27:44;99824.22;;;11.62;100.00
12987;BME280;58897;51.960;5.582;2023-10-31T08:30:11;99831.13;;;11.86;100.00
12987;BME280;58897;51.960;5.582;2023-10-31T08:32:38;99825.16;;;11.69;100.00
12987;BME280;58897;51.960;5.582;2023-10-31T08:35:05;99838.25;;;11.51;100.00
12987;BME280;58897;51.960;5.582;2023-10-31T08:37:31;99845.16;;;11.54;100.00
12987;BME280;58897;51.960;5.582;2023-10-31T08:39:58;99836.31;;;11.66;100.00
12987;BME280;58897;51.960;5.582;2023-10-31T08:42:25;99842.38;;;11.90;100.00
12987;BME280;58897;51.960;5.582;2023-10-31T08:44:51;99834.84;;;12.88;100.00
12987;BME280;58897;51.960;5.582;2023-10-31T08:47:18;99820.00;;;13.18;100.00
12987;BME280;58897;51.960;5.582;2023-10-31T08:49:44;99814.19;;;13.41;100.00
12987;BME280;58897;51.960;5.582;2023-10-31T08:52:11;99820.50;;;12.94;100.00
12987;BME280;58897;51.960;5.582;2023-10-31T08:54:38;99820.38;;;12.61;100.00
12987;BME280;58897;51.960;5.582;2023-10-31T08:57:04;99840.31;;;12.19;100.00
12987;BME280;58897;51.960;5.582;2023-10-31T08:59:31;99843.22;;;12.18;100.00
12987;BME280;58897;51.960;5.582;2023-10-31T09:01:58;99835.13;;;14.12;100.00
12987;BME280;58897;51.960;5.582;2023-10-31T09:04:24;99824.50;;;15.32;100.00
12987;BME280;58897;51.960;5.582;2023-10-31T09:06:51;99811.38;;;15.61;100.00
12987;BME280;58897;51.960;5.582;2023-10-31T09:09:18;99816.47;;;15.44;100.00
12987;BME280;58897;51.960;5.582;2023-10-31T09:11:44;99810.25;;;15.30;100.00
12987;BME280;58897;51.960;5.582;2023-10-31T09:14:11;99815.44;;;16.26;100.00
12987;BME280;58897;51.960;5.582;2023-10-31T09:16:38;99813.94;;;16.05;100.00
12987;BME280;58897;51.960;5.582;2023-10-31T09:19:04;99818.13;;;16.08;100.00
12987;BME280;58897;51.960;5.582;2023-10-31T09:21:31;99829.78;;;15.27;100.00
12987;BME280;58897;51.960;5.582;2023-10-31T09:23:58;99837.13;;;14.63;100.00
12987;BME280;58897;51.960;5.582;2023-10-31T09:26:24;99839.53;;;14.33;100.00
12987;BME280;58897;51.960;5.582;2023-10-31T09:28:51;99857.69;;;14.13;100.00
12987;BME280;58897;51.960;5.582;2023-10-31T09:31:18;99857.25;;;14.03;100.00
12987;BME280;58897;51.960;5.582;2023-10-31T09:33:45;99869.16;;;14.21;100.00
12987;BME280;58897;51.960;5.582;2023-10-31T09:36:12;99857.69;;;13.74;100.00
12987;BME280;58897;51.960;5.582;2023-10-31T09:38:40;99868.09;;;14.55;100.00
12987;BME280;58897;51.960;5.582;2023-10-31T09:41:07;99868.13;;;14.03;100.00
12987;BME280;58897;51.960;5.582;2023-10-31T09:43:34;99867.38;;;15.37;100.00
12987;BME280;58897;51.960;5.582;2023-10-31T09:46:01;99860.41;;;16.59;100.00
12987;BME280;58897;51.960;5.582;2023-10-31T09:48:28;99859.13;;;17.64;100.00
12987;BME280;58897;51.960;5.582;2023-10-31T09:50:56;99859.72;;;18.19;100.00
12987;BME280;58897;51.960;5.582;2023-10-31T09:53:23;99856.00;;;17.91;100.00
12987;BME280;58897;51.960;5.582;2023-10-31T09:55:51;99871.81;;;16.25;100.00
12987;BME280;58897;51.960;5.582;2023-10-31T09:58:18;99876.88;;;15.97;100.00
12987;BME280;58897;51.960;5.582;2023-10-31T10:00:44;99882.69;;;15.38;100.00
12987;BME280;58897;51.960;5.582;2023-10-31T10:03:11;99883.91;;;15.80;100.00
12987;BME280;58897;51.960;5.582;2023-10-31T10:05:39;99889.13;;;15.81;100.00
12987;BME280;58897;51.960;5.582;2023-10-31T10:08:06;99899.25;;;15.74;100.00
12987;BME280;58897;51.960;5.582;2023-10-31T10:10:35;99900.44;;;14.90;100.00
12987;BME280;58897;51.960;5.582;2023-10-31T10:13:02;99899.72;;;15.14;100.00
12987;BME280;58897;51.960;5.582;2023-10-31T10:15:30;99902.09;;;15.86;100.00
12987;BME280;58897;51.960;5.582;2023-10-31T10:17:56;99903.50;;;15.64;100.00
12987;BME280;58897;51.960;5.582;2023-10-31T10:20:23;99907.13;;;16.38;100.00
12987;BME280;58897;51.960;5.582;2023-10-31T10:22:50;99914.66;;;15.87;100.00
12987;BME280;58897;51.960;5.582;2023-10-31T10:25:17;99910.34;;;15.73;100.00
12987;BME280;58897;51.960;5.582;2023-10-31T10:27:47;99912.16;;;15.41;100.00
12987;BME280;58897;51.960;5.582;2023-10-31T10:30:15;99912.69;;;15.63;100.00
12987;BME280;58897;51.960;5.582;2023-10-31T10:32:42;99918.19;;;14.99;100.00
12987;BME280;58897;51.960;5.582;2023-10-31T10:35:09;99923.50;;;14.48;100.00
12987;BME280;58897;51.960;5.582;2023-10-31T10:37:37;99941.44;;;14.29;100.00
12987;BME280;58897;51.960;5.582;2023-10-31T10:40:06;99940.78;;;13.81;100.00
12987;BME280;58897;51.960;5.582;2023-10-31T10:42:45;99954.13;;;13.76;100.00
12987;BME280;58897;51.960;5.582;2023-10-31T10:45:16;99944.00;;;13.50;100.00
12987;BME280;58897;51.960;5.582;2023-10-31T10:47:49;99966.66;;;13.23;100.00
12987;BME280;58897;51.960;5.582;2023-10-31T10:50:19;99966.28;;;13.33;100.00
12987;BME280;58897;51.960;5.582;2023-10-31T10:53:00;99964.97;;;13.63;100.00
12987;BME280;58897;51.960;5.582;2023-10-31T10:55:45;99960.00;;;13.93;100.00
12987;BME280;58897;51.960;5.582;2023-10-31T10:58:51;99956.16;;;13.61;100.00
12987;BME280;58897;51.960;5.582;2023-10-31T11:01:21;99945.69;;;13.51;100.00
12987;BME280;58897;51.960;5.582;2023-10-31T11:03:49;99944.81;;;13.31;100.00
12987;BME280;58897;51.960;5.582;2023-10-31T11:06:16;99959.53;;;13.16;100.00
12987;BME280;58897;51.960;5.582;2023-10-31T11:08:43;99963.94;;;13.23;100.00
12987;BME280;58897;51.960;5.582;2023-10-31T11:11:10;99970.00;;;13.25;100.00
12987;BME280;58897;51.960;5.582;2023-10-31T11:13:38;99970.19;;;12.89;100.00
12987;BME280;58897;51.960;5.582;2023-10-31T11:16:16;99973.56;;;13.26;100.00
12987;BME280;58897;51.960;5.582;2023-10-31T11:18:44;99977.25;;;13.59;100.00
12987;BME280;58897;51.960;5.582;2023-10-31T11:21:11;99981.06;;;13.24;100.00
12987;BME280;58897;51.960;5.582;2023-10-31T11:23:38;99981.53;;;13.40;100.00
12987;BME280;58897;51.960;5.582;2023-10-31T11:26:08;99975.88;;;13.35;100.00
12987;BME280;58897;51.960;5.582;2023-10-31T11:28:36;99983.25;;;13.07;100.00
12987;BME280;58897;51.960;5.582;2023-10-31T11:31:02;99982.97;;;12.95;100.00
12987;BME280;58897;51.960;5.582;2023-10-31T11:33:29;99980.69;;;12.99;100.00
12987;BME280;58897;51.960;5.582;2023-10-31T11:36:03;99986.16;;;12.78;100.00
12987;BME280;58897;51.960;5.582;2023-10-31T11:38:32;99997.44;;;13.09;100.00
12987;BME280;58897;51.960;5.582;2023-10-31T11:41:03;99992.78;;;13.31;100.00
12987;BME280;58897;51.960;5.582;2023-10-31T11:46:20;99982.00;;;14.31;100.00
12987;BME280;58897;51.960;5.582;2023-10-31T11:48:53;99983.19;;;13.89;100.00
12987;BME280;58897;51.960;5.582;2023-10-31T11:51:22;99991.66;;;14.72;100.00
12987;BME280;58897;51.960;5.582;2023-10-31T11:53:49;99983.28;;;14.74;100.00
12987;BME280;58897;51.960;5.582;2023-10-31T11:56:16;99995.34;;;13.99;100.00
12987;BME280;58897;51.960;5.582;2023-10-31T11:58:43;99990.19;;;14.57;100.00
12987;BME280;58897;51.960;5.582;2023-10-31T12:01:10;99995.84;;;13.62;100.00
12987;BME280;58897;51.960;5.582;2023-10-31T12:03:43;100014.09;;;13.40;100.00
12987;BME280;58897;51.960;5.582;2023-10-31T12:06:18;100007.66;;;13.41;100.00
12987;BME280;58897;51.960;5.582;2023-10-31T12:08:47;99999.41;;;13.69;100.00
12987;BME280;58897;51.960;5.582;2023-10-31T12:11:22;99999.84;;;13.73;100.00
12987;BME280;58897;51.960;5.582;2023-10-31T12:13:54;99996.81;;;13.48;100.00
12987;BME280;58897;51.960;5.582;2023-10-31T12:16:26;100004.94;;;13.07;100.00
12987;BME280;58897;51.960;5.582;2023-10-31T12:19:01;100015.31;;;13.03;100.00
12987;BME280;58897;51.960;5.582;2023-10-31T12:21:54;100011.53;;;13.26;100.00
12987;BME280;58897;51.960;5.582;2023-10-31T12:24:22;100008.97;;;13.18;100.00
12987;BME280;58897;51.960;5.582;2023-10-31T12:26:52;100003.97;;;13.62;100.00
12987;BME280;58897;51.960;5.582;2023-10-31T12:29:20;100014.44;;;12.96;100.00
12987;BME280;58897;51.960;5.582;2023-10-31T12:31:53;100015.75;;;13.35;100.00
12987;BME280;58897;51.960;5.582;2023-10-31T12:34:23;100017.56;;;13.21;100.00
12987;BME280;58897;51.960;5.582;2023-10-31T12:36:52;100027.41;;;13.01;100.00
12987;BME280;58897;51.960;5.582;2023-10-31T12:39:24;100034.03;;;12.92;100.00
12987;BME280;58897;51.960;5.582;2023-10-31T12:41:53;100040.28;;;12.92;100.00
12987;BME280;58897;51.960;5.582;2023-10-31T12:44:24;100038.84;;;12.69;100.00
12987;BME280;58897;51.960;5.582;2023-10-31T12:46:52;100032.00;;;12.73;100.00
12987;BME280;58897;51.960;5.582;2023-10-31T12:49:19;100034.16;;;12.84;100.00
12987;BME280;58897;51.960;5.582;2023-10-31T12:52:03;100031.00;;;12.80;100.00
12987;BME280;58897;51.960;5.582;2023-10-31T12:54:35;100036.03;;;12.56;100.00